sensor_id;sensor_type;location;lat;lon;timestamp;P1;durP1;ratioP1;P2;durP2;ratioP2
60241;SDS011;46103;52.076;113.488;2024-03-25T00:05:15;33.63;;;13.30;;
60241;SDS011;46103;52.076;113.488;2024-03-25T00:08:22;18.48;;;10.38;;
60241;SDS011;46103;52.076;113.488;2024-03-25T00:11:24;60.17;;;22.77;;
60241;SDS011;46103;52.076;113.488;2024-03-25T00:14:30;40.53;;;20.83;;
60241;SDS011;46103;52.076;113.488;2024-03-25T00:17:33;43.90;;;19.75;;
60241;SDS011;46103;52.076;113.488;2024-03-25T00:20:36;51.40;;;23.13;;
60241;SDS011;46103;52.076;113.488;2024-03-25T00:23:38;59.80;;;26.95;;
60241;SDS011;46103;52.076;113.488;2024-03-25T00:26:40;71.47;;;32.58;;
60241;SDS011;46103;52.076;113.488;2024-03-25T00:29:42;65.75;;;32.40;;
60241;SDS011;46103;52.076;113.488;2024-03-25T00:32:47;62.22;;;26.75;;
60241;SDS011;46103;52.076;113.488;2024-03-25T00:35:49;52.95;;;26.05;;
60241;SDS011;46103;52.076;113.488;2024-03-25T00:38:52;63.78;;;27.73;;
60241;SDS011;46103;52.076;113.488;2024-03-25T00:41:54;78.18;;;34.08;;
60241;SDS011;46103;52.076;113.488;2024-03-25T00:44:57;63.25;;;32.20;;
60241;SDS011;46103;52.076;113.488;2024-03-25T00:47:59;74.63;;;33.90;;
60241;SDS011;46103;52.076;113.488;2024-03-25T00:51:01;42.65;;;21.33;;
60241;SDS011;46103;52.076;113.488;2024-03-25T00:54:03;34.55;;;16.95;;
60241;SDS011;46103;52.076;113.488;2024-03-25T00:57:05;29.50;;;15.05;;
60241;SDS011;46103;52.076;113.488;2024-03-25T01:00:08;27.77;;;13.85;;
60241;SDS011;46103;52.076;113.488;2024-03-25T01:03:10;27.02;;;13.65;;
60241;SDS011;46103;52.076;113.488;2024-03-25T01:06:13;24.77;;;11.52;;
60241;SDS011;46103;52.076;113.488;2024-03-25T01:09:18;28.45;;;13.23;;
60241;SDS011;46103;52.076;113.488;2024-03-25T01:12:20;30.65;;;13.27;;
60241;SDS011;46103;52.076;113.488;2024-03-25T01:15:22;28.13;;;12.73;;
60241;SDS011;46103;52.076;113.488;2024-03-25T01:18:24;27.67;;;13.18;;
60241;SDS011;46103;52.076;113.488;2024-03-25T01:21:27;26.30;;;13.18;;
60241;SDS011;46103;52.076;113.488;2024-03-25T01:24:28;26.52;;;13.98;;
60241;SDS011;46103;52.076;113.488;2024-03-25T01:27:32;24.23;;;13.18;;
60241;SDS011;46103;52.076;113.488;2024-03-25T01:30:35;31.58;;;13.95;;
60241;SDS011;46103;52.076;113.488;2024-03-25T01:33:39;26.00;;;12.98;;
60241;SDS011;46103;52.076;113.488;2024-03-25T01:36:41;26.38;;;12.77;;
60241;SDS011;46103;52.076;113.488;2024-03-25T01:39:43;28.58;;;14.88;;
60241;SDS011;46103;52.076;113.488;2024-03-25T01:43:02;36.05;;;16.13;;
60241;SDS011;46103;52.076;113.488;2024-03-25T01:46:04;34.50;;;16.08;;
60241;SDS011;46103;52.076;113.488;2024-03-25T01:49:07;33.25;;;17.38;;
60241;SDS011;46103;52.076;113.488;2024-03-25T01:52:10;32.92;;;16.73;;
60241;SDS011;46103;52.076;113.488;2024-03-25T01:55:12;36.88;;;17.60;;
60241;SDS011;46103;52.076;113.488;2024-03-25T01:58:19;31.10;;;16.25;;
60241;SDS011;46103;52.076;113.488;2024-03-25T02:01:21;35.47;;;15.30;;
60241;SDS011;46103;52.076;113.488;2024-03-25T02:04:24;32.67;;;15.57;;
60241;SDS011;46103;52.076;113.488;2024-03-25T02:07:27;27.73;;;12.63;;
60241;SDS011;46103;52.076;113.488;2024-03-25T02:10:32;24.17;;;12.82;;
60241;SDS011;46103;52.076;113.488;2024-03-25T02:13:35;22.05;;;9.60;;
60241;SDS011;46103;52.076;113.488;2024-03-25T02:16:37;19.33;;;9.25;;
60241;SDS011;46103;52.076;113.488;2024-03-25T02:19:39;20.08;;;9.73;;
60241;SDS011;46103;52.076;113.488;2024-03-25T02:22:42;20.83;;;8.60;;
60241;SDS011;46103;52.076;113.488;2024-03-25T02:25:51;22.65;;;9.02;;
60241;SDS011;46103;52.076;113.488;2024-03-25T02:28:54;15.68;;;8.40;;
60241;SDS011;46103;52.076;113.488;2024-03-25T02:31:56;17.23;;;8.70;;
60241;SDS011;46103;52.076;113.488;2024-03-25T02:34:59;16.13;;;7.80;;
60241;SDS011;46103;52.076;113.488;2024-03-25T02:38:04;15.95;;;8.35;;
60241;SDS011;46103;52.076;113.488;2024-03-25T02:41:07;15.20;;;8.00;;
60241;SDS011;46103;52.076;113.488;2024-03-25T02:44:10;14.65;;;7.88;;
60241;SDS011;46103;52.076;113.488;2024-03-25T02:47:14;13.15;;;7.05;;
60241;SDS011;46103;52.076;113.488;2024-03-25T02:50:16;18.63;;;8.40;;
60241;SDS011;46103;52.076;113.488;2024-03-25T02:56:21;12.40;;;6.03;;
60241;SDS011;46103;52.076;113.488;2024-03-25T02:59:23;11.65;;;5.30;;
60241;SDS011;46103;52.076;113.488;2024-03-25T03:02:26;12.55;;;5.43;;
60241;SDS011;46103;52.076;113.488;2024-03-25T03:05:28;14.23;;;5.72;;
60241;SDS011;46103;52.076;113.488;2024-03-25T03:08:30;11.20;;;5.65;;
60241;SDS011;46103;52.076;113.488;2024-03-25T03:11:32;12.05;;;5.47;;
60241;SDS011;46103;52.076;113.488;2024-03-25T03:14:34;10.15;;;5.22;;
60241;SDS011;46103;52.076;113.488;2024-03-25T03:17:37;13.88;;;5.32;;
60241;SDS011;46103;52.076;113.488;2024-03-25T03:20:39;13.35;;;6.00;;
60241;SDS011;46103;52.076;113.488;2024-03-25T03:23:45;9.75;;;4.70;;
60241;SDS011;46103;52.076;113.488;2024-03-25T03:26:47;10.20;;;5.22;;
60241;SDS011;46103;52.076;113.488;2024-03-25T03:29:49;9.68;;;5.00;;
60241;SDS011;46103;52.076;113.488;2024-03-25T03:32:54;10.75;;;5.30;;
60241;SDS011;46103;52.076;113.488;2024-03-25T03:35:57;5.53;;;2.50;;
60241;SDS011;46103;52.076;113.488;2024-03-25T03:38:59;2.85;;;1.17;;
60241;SDS011;46103;52.076;113.488;2024-03-25T03:42:01;2.38;;;1.00;;
60241;SDS011;46103;52.076;113.488;2024-03-25T03:45:02;2.03;;;1.02;;
60241;SDS011;46103;52.076;113.488;2024-03-25T03:48:07;3.78;;;1.33;;
60241;SDS011;46103;52.076;113.488;2024-03-25T03:51:09;2.55;;;1.00;;
60241;SDS011;46103;52.076;113.488;2024-03-25T03:57:14;4.50;;;1.27;;
60241;SDS011;46103;52.076;113.488;2024-03-25T04:00:16;8.25;;;1.60;;
60241;SDS011;46103;52.076;113.488;2024-03-25T04:03:19;2.20;;;0.80;;
60241;SDS011;46103;52.076;113.488;2024-03-25T04:09:24;1.17;;;0.40;;
60241;SDS011;46103;52.076;113.488;2024-03-25T04:12:26;6.68;;;1.13;;
60241;SDS011;46103;52.076;113.488;2024-03-25T04:18:32;3.85;;;0.80;;
60241;SDS011;46103;52.076;113.488;2024-03-25T04:21:35;4.32;;;1.10;;
60241;SDS011;46103;52.076;113.488;2024-03-25T04:24:37;1.92;;;0.47;;
60241;SDS011;46103;52.076;113.488;2024-03-25T04:27:41;1.15;;;0.50;;
60241;SDS011;46103;52.076;113.488;2024-03-25T04:30:50;1.30;;;0.43;;
60241;SDS011;46103;52.076;113.488;2024-03-25T04:33:53;2.70;;;0.82;;
60241;SDS011;46103;52.076;113.488;2024-03-25T04:39:58;3.45;;;0.50;;
60241;SDS011;46103;52.076;113.488;2024-03-25T04:43:00;1.88;;;0.57;;
60241;SDS011;46103;52.076;113.488;2024-03-25T04:46:04;3.35;;;0.70;;
60241;SDS011;46103;52.076;113.488;2024-03-25T04:49:06;4.18;;;1.02;;
60241;SDS011;46103;52.076;113.488;2024-03-25T04:52:08;1.40;;;0.40;;
60241;SDS011;46103;52.076;113.488;2024-03-25T04:55:10;2.83;;;0.85;;
60241;SDS011;46103;52.076;113.488;2024-03-25T04:58:12;1.88;;;0.60;;
60241;SDS011;46103;52.076;113.488;2024-03-25T05:04:20;2.33;;;0.70;;
60241;SDS011;46103;52.076;113.488;2024-03-25T05:07:23;0.75;;;0.30;;
60241;SDS011;46103;52.076;113.488;2024-03-25T05:10:28;1.98;;;0.50;;
60241;SDS011;46103;52.076;113.488;2024-03-25T05:13:30;2.33;;;0.70;;
60241;SDS011;46103;52.076;113.488;2024-03-25T05:16:33;3.70;;;0.80;;
60241;SDS011;46103;52.076;113.488;2024-03-25T05:19:35;3.00;;;0.63;;
60241;SDS011;46103;52.076;113.488;2024-03-25T05:25:39;3.58;;;0.80;;
60241;SDS011;46103;52.076;113.488;2024-03-25T05:28:42;3.03;;;0.50;;
60241;SDS011;46103;52.076;113.488;2024-03-25T05:31:58;0.77;;;0.47;;
60241;SDS011;46103;52.076;113.488;2024-03-25T05:35:01;2.15;;;0.50;;
60241;SDS011;46103;52.076;113.488;2024-03-25T05:38:04;4.45;;;0.77;;
60241;SDS011;46103;52.076;113.488;2024-03-25T05:41:06;3.50;;;1.30;;
60241;SDS011;46103;52.076;113.488;2024-03-25T05:44:09;2.28;;;0.88;;
60241;SDS011;46103;52.076;113.488;2024-03-25T05:47:11;1.70;;;0.55;;
60241;SDS011;46103;52.076;113.488;2024-03-25T05:50:13;1.25;;;0.47;;
60241;SDS011;46103;52.076;113.488;2024-03-25T05:56:17;2.35;;;0.80;;
60241;SDS011;46103;52.076;113.488;2024-03-25T05:59:19;2.33;;;0.57;;
60241;SDS011;46103;52.076;113.488;2024-03-25T06:05:23;2.10;;;0.50;;
60241;SDS011;46103;52.076;113.488;2024-03-25T06:08:25;3.08;;;0.65;;
60241;SDS011;46103;52.076;113.488;2024-03-25T06:11:28;1.17;;;0.60;;
60241;SDS011;46103;52.076;113.488;2024-03-25T06:14:30;1.95;;;0.50;;
60241;SDS011;46103;52.076;113.488;2024-03-25T06:17:32;1.33;;;0.50;;
60241;SDS011;46103;52.076;113.488;2024-03-25T06:20:34;3.38;;;1.02;;
60241;SDS011;46103;52.076;113.488;2024-03-25T06:23:36;2.60;;;0.80;;
60241;SDS011;46103;52.076;113.488;2024-03-25T06:29:40;2.55;;;0.40;;
60241;SDS011;46103;52.076;113.488;2024-03-25T06:32:42;0.98;;;0.45;;
60241;SDS011;46103;52.076;113.488;2024-03-25T06:36:02;1.83;;;0.47;;
60241;SDS011;46103;52.076;113.488;2024-03-25T06:39:04;0.80;;;0.30;;
60241;SDS011;46103;52.076;113.488;2024-03-25T06:42:07;1.83;;;0.80;;
60241;SDS011;46103;52.076;113.488;2024-03-25T06:45:09;1.05;;;0.47;;
60241;SDS011;46103;52.076;113.488;2024-03-25T06:48:11;2.85;;;0.43;;
60241;SDS011;46103;52.076;113.488;2024-03-25T06:51:13;2.85;;;0.68;;
60241;SDS011;46103;52.076;113.488;2024-03-25T06:54:16;1.80;;;0.50;;
60241;SDS011;46103;52.076;113.488;2024-03-25T06:57:19;1.45;;;0.70;;
60241;SDS011;46103;52.076;113.488;2024-03-25T07:00:22;1.92;;;0.65;;
60241;SDS011;46103;52.076;113.488;2024-03-25T07:03:24;1.95;;;0.60;;
60241;SDS011;46103;52.076;113.488;2024-03-25T07:06:26;1.92;;;0.70;;
60241;SDS011;46103;52.076;113.488;2024-03-25T07:09:28;1.10;;;0.32;;
60241;SDS011;46103;52.076;113.488;2024-03-25T07:12:30;1.67;;;0.70;;
60241;SDS011;46103;52.076;113.488;2024-03-25T07:15:32;3.72;;;1.23;;
60241;SDS011;46103;52.076;113.488;2024-03-25T07:18:34;3.13;;;0.60;;
60241;SDS011;46103;52.076;113.488;2024-03-25T07:21:36;4.88;;;0.85;;
60241;SDS011;46103;52.076;113.488;2024-03-25T07:24:38;1.83;;;0.60;;
60241;SDS011;46103;52.076;113.488;2024-03-25T07:27:40;1.77;;;0.50;;
60241;SDS011;46103;52.076;113.488;2024-03-25T07:30:42;3.53;;;1.05;;
60241;SDS011;46103;52.076;113.488;2024-03-25T07:33:44;3.15;;;0.43;;
60241;SDS011;46103;52.076;113.488;2024-03-25T07:36:46;1.25;;;0.40;;
60241;SDS011;46103;52.076;113.488;2024-03-25T07:39:50;2.58;;;0.50;;
60241;SDS011;46103;52.076;113.488;2024-03-25T07:42:53;1.45;;;0.60;;
60241;SDS011;46103;52.076;113.488;2024-03-25T07:45:55;2.40;;;0.60;;
60241;SDS011;46103;52.076;113.488;2024-03-25T07:48:58;1.95;;;0.63;;
60241;SDS011;46103;52.076;113.488;2024-03-25T07:52:00;1.10;;;0.32;;
60241;SDS011;46103;52.076;113.488;2024-03-25T07:55:03;2.97;;;0.57;;
60241;SDS011;46103;52.076;113.488;2024-03-25T07:58:05;3.00;;;1.10;;
60241;SDS011;46103;52.076;113.488;2024-03-25T08:01:08;3.17;;;0.60;;
60241;SDS011;46103;52.076;113.488;2024-03-25T08:04:10;2.30;;;0.60;;
60241;SDS011;46103;52.076;113.488;2024-03-25T08:07:12;2.47;;;0.60;;
60241;SDS011;46103;52.076;113.488;2024-03-25T08:10:15;2.33;;;0.40;;
60241;SDS011;46103;52.076;113.488;2024-03-25T08:13:18;2.45;;;0.50;;
60241;SDS011;46103;52.076;113.488;2024-03-25T08:16:23;2.22;;;0.52;;
60241;SDS011;46103;52.076;113.488;2024-03-25T08:19:26;2.53;;;0.80;;
60241;SDS011;46103;52.076;113.488;2024-03-25T08:25:30;2.58;;;0.60;;
60241;SDS011;46103;52.076;113.488;2024-03-25T08:28:33;3.08;;;0.80;;
60241;SDS011;46103;52.076;113.488;2024-03-25T08:31:36;3.88;;;0.85;;
60241;SDS011;46103;52.076;113.488;2024-03-25T08:37:40;2.78;;;0.75;;
60241;SDS011;46103;52.076;113.488;2024-03-25T08:40:42;1.80;;;0.70;;
60241;SDS011;46103;52.076;113.488;2024-03-25T08:43:45;2.38;;;0.70;;
60241;SDS011;46103;52.076;113.488;2024-03-25T08:46:47;3.63;;;0.95;;
60241;SDS011;46103;52.076;113.488;2024-03-25T08:49:50;4.20;;;1.60;;
60241;SDS011;46103;52.076;113.488;2024-03-25T08:52:52;3.72;;;1.08;;
60241;SDS011;46103;52.076;113.488;2024-03-25T08:55:55;4.32;;;1.25;;
60241;SDS011;46103;52.076;113.488;2024-03-25T08:58:58;4.50;;;2.00;;
60241;SDS011;46103;52.076;113.488;2024-03-25T09:02:01;6.60;;;1.48;;
60241;SDS011;46103;52.076;113.488;2024-03-25T09:05:03;3.50;;;1.27;;
60241;SDS011;46103;52.076;113.488;2024-03-25T09:08:10;2.97;;;1.10;;
60241;SDS011;46103;52.076;113.488;2024-03-25T09:11:13;2.83;;;1.05;;
60241;SDS011;46103;52.076;113.488;2024-03-25T09:14:17;2.72;;;1.00;;
60241;SDS011;46103;52.076;113.488;2024-03-25T09:17:19;4.05;;;1.10;;
60241;SDS011;46103;52.076;113.488;2024-03-25T09:20:24;5.28;;;1.60;;
60241;SDS011;46103;52.076;113.488;2024-03-25T09:23:31;2.17;;;0.80;;
60241;SDS011;46103;52.076;113.488;2024-03-25T09:26:34;3.42;;;1.25;;
60241;SDS011;46103;52.076;113.488;2024-03-25T09:29:36;2.75;;;1.10;;
60241;SDS011;46103;52.076;113.488;2024-03-25T09:32:42;3.60;;;2.00;;
60241;SDS011;46103;52.076;113.488;2024-03-25T09:35:44;4.22;;;1.80;;
60241;SDS011;46103;52.076;113.488;2024-03-25T09:38:47;3.08;;;1.60;;
60241;SDS011;46103;52.076;113.488;2024-03-25T09:41:49;3.42;;;1.15;;
60241;SDS011;46103;52.076;113.488;2024-03-25T09:44:55;2.75;;;0.82;;
60241;SDS011;46103;52.076;113.488;2024-03-25T09:47:57;2.88;;;1.30;;
60241;SDS011;46103;52.076;113.488;2024-03-25T09:51:02;2.85;;;1.38;;
60241;SDS011;46103;52.076;113.488;2024-03-25T09:54:05;4.90;;;2.25;;
60241;SDS011;46103;52.076;113.488;2024-03-25T09:57:08;3.28;;;1.73;;
60241;SDS011;46103;52.076;113.488;2024-03-25T10:00:12;3.30;;;1.63;;
60241;SDS011;46103;52.076;113.488;2024-03-25T10:03:17;5.53;;;2.60;;
60241;SDS011;46103;52.076;113.488;2024-03-25T10:06:18;7.10;;;2.80;;
60241;SDS011;46103;52.076;113.488;2024-03-25T10:09:21;7.85;;;4.28;;
60241;SDS011;46103;52.076;113.488;2024-03-25T10:12:24;9.48;;;4.68;;
60241;SDS011;46103;52.076;113.488;2024-03-25T10:15:27;10.30;;;5.65;;
60241;SDS011;46103;52.076;113.488;2024-03-25T10:18:30;14.50;;;7.20;;
60241;SDS011;46103;52.076;113.488;2024-03-25T10:21:35;13.45;;;7.25;;
60241;SDS011;46103;52.076;113.488;2024-03-25T10:24:41;16.00;;;7.85;;
60241;SDS011;46103;52.076;113.488;2024-03-25T10:27:52;16.55;;;10.30;;
60241;SDS011;46103;52.076;113.488;2024-03-25T10:30:56;17.17;;;8.52;;
60241;SDS011;46103;52.076;113.488;2024-03-25T10:34:04;11.27;;;6.28;;
60241;SDS011;46103;52.076;113.488;2024-03-25T10:37:08;10.73;;;5.80;;
60241;SDS011;46103;52.076;113.488;2024-03-25T10:40:11;11.77;;;5.13;;
60241;SDS011;46103;52.076;113.488;2024-03-25T10:43:14;7.05;;;4.32;;
60241;SDS011;46103;52.076;113.488;2024-03-25T10:46:19;6.35;;;4.00;;
60241;SDS011;46103;52.076;113.488;2024-03-25T10:52:36;9.63;;;4.40;;
60241;SDS011;46103;52.076;113.488;2024-03-25T10:55:40;11.30;;;5.40;;
60241;SDS011;46103;52.076;113.488;2024-03-25T10:58:43;8.90;;;5.15;;
60241;SDS011;46103;52.076;113.488;2024-03-25T11:01:46;22.58;;;8.65;;
60241;SDS011;46103;52.076;113.488;2024-03-25T11:04:48;9.30;;;4.75;;
60241;SDS011;46103;52.076;113.488;2024-03-25T11:07:53;17.85;;;7.45;;
60241;SDS011;46103;52.076;113.488;2024-03-25T11:10:55;17.02;;;6.45;;
60241;SDS011;46103;52.076;113.488;2024-03-25T11:14:02;10.30;;;4.60;;
60241;SDS011;46103;52.076;113.488;2024-03-25T11:17:17;12.98;;;5.38;;
60241;SDS011;46103;52.076;113.488;2024-03-25T11:23:21;10.60;;;5.35;;
60241;SDS011;46103;52.076;113.488;2024-03-25T11:26:24;13.23;;;5.80;;
60241;SDS011;46103;52.076;113.488;2024-03-25T11:29:31;11.57;;;6.00;;
60241;SDS011;46103;52.076;113.488;2024-03-25T11:32:44;11.25;;;4.70;;
60241;SDS011;46103;52.076;113.488;2024-03-25T11:35:46;13.43;;;5.55;;
60241;SDS011;46103;52.076;113.488;2024-03-25T11:38:56;13.98;;;6.03;;
60241;SDS011;46103;52.076;113.488;2024-03-25T11:42:07;10.07;;;5.53;;
60241;SDS011;46103;52.076;113.488;2024-03-25T11:48:19;10.57;;;4.50;;
60241;SDS011;46103;52.076;113.488;2024-03-25T11:51:22;8.15;;;4.40;;
60241;SDS011;46103;52.076;113.488;2024-03-25T11:54:28;10.50;;;4.63;;
60241;SDS011;46103;52.076;113.488;2024-03-25T11:57:30;8.07;;;3.65;;
60241;SDS011;46103;52.076;113.488;2024-03-25T12:00:33;5.88;;;3.00;;
60241;SDS011;46103;52.076;113.488;2024-03-25T12:03:35;5.75;;;3.10;;
60241;SDS011;46103;52.076;113.488;2024-03-25T12:06:38;5.53;;;3.10;;
60241;SDS011;46103;52.076;113.488;2024-03-25T12:13:01;6.50;;;2.55;;
60241;SDS011;46103;52.076;113.488;2024-03-25T12:16:04;7.22;;;3.53;;
60241;SDS011;46103;52.076;113.488;2024-03-25T12:19:09;19.40;;;8.07;;
60241;SDS011;46103;52.076;113.488;2024-03-25T12:22:12;13.25;;;6.22;;
60241;SDS011;46103;52.076;113.488;2024-03-25T12:25:14;11.25;;;5.20;;
60241;SDS011;46103;52.076;113.488;2024-03-25T12:28:17;11.85;;;4.78;;
60241;SDS011;46103;52.076;113.488;2024-03-25T12:31:19;15.55;;;6.97;;
60241;SDS011;46103;52.076;113.488;2024-03-25T12:34:25;8.60;;;4.30;;
60241;SDS011;46103;52.076;113.488;2024-03-25T12:37:27;7.88;;;4.22;;
60241;SDS011;46103;52.076;113.488;2024-03-25T12:40:30;10.90;;;4.53;;
60241;SDS011;46103;52.076;113.488;2024-03-25T12:43:33;9.23;;;4.30;;
60241;SDS011;46103;52.076;113.488;2024-03-25T12:46:36;12.02;;;5.13;;
60241;SDS011;46103;52.076;113.488;2024-03-25T12:49:40;10.82;;;5.82;;
60241;SDS011;46103;52.076;113.488;2024-03-25T12:52:45;8.10;;;4.72;;
60241;SDS011;46103;52.076;113.488;2024-03-25T12:55:48;8.23;;;3.80;;
60241;SDS011;46103;52.076;113.488;2024-03-25T12:58:50;8.70;;;4.53;;
60241;SDS011;46103;52.076;113.488;2024-03-25T13:01:54;7.78;;;3.38;;
60241;SDS011;46103;52.076;113.488;2024-03-25T13:04:57;12.07;;;5.10;;
60241;SDS011;46103;52.076;113.488;2024-03-25T13:07:59;10.30;;;4.65;;
60241;SDS011;46103;52.076;113.488;2024-03-25T13:14:05;15.50;;;7.57;;
60241;SDS011;46103;52.076;113.488;2024-03-25T13:17:08;10.13;;;5.15;;
60241;SDS011;46103;52.076;113.488;2024-03-25T13:20:10;10.00;;;5.22;;
60241;SDS011;46103;52.076;113.488;2024-03-25T13:23:13;10.73;;;5.05;;
60241;SDS011;46103;52.076;113.488;2024-03-25T13:26:15;7.97;;;4.03;;
60241;SDS011;46103;52.076;113.488;2024-03-25T13:29:18;11.02;;;5.47;;
60241;SDS011;46103;52.076;113.488;2024-03-25T13:32:21;9.93;;;4.25;;
60241;SDS011;46103;52.076;113.488;2024-03-25T13:35:24;8.15;;;3.90;;
60241;SDS011;46103;52.076;113.488;2024-03-25T13:38:27;11.70;;;5.00;;
60241;SDS011;46103;52.076;113.488;2024-03-25T13:41:29;8.38;;;4.60;;
60241;SDS011;46103;52.076;113.488;2024-03-25T13:44:32;8.75;;;4.75;;
60241;SDS011;46103;52.076;113.488;2024-03-25T13:47:34;10.18;;;4.13;;
60241;SDS011;46103;52.076;113.488;2024-03-25T13:50:36;10.93;;;4.80;;
60241;SDS011;46103;52.076;113.488;2024-03-25T13:53:39;15.95;;;6.47;;
60241;SDS011;46103;52.076;113.488;2024-03-25T13:56:40;16.20;;;7.13;;
60241;SDS011;46103;52.076;113.488;2024-03-25T13:59:43;13.80;;;6.53;;
60241;SDS011;46103;52.076;113.488;2024-03-25T14:02:46;18.88;;;7.97;;
60241;SDS011;46103;52.076;113.488;2024-03-25T14:05:49;22.98;;;9.70;;
60241;SDS011;46103;52.076;113.488;2024-03-25T14:08:51;14.65;;;7.85;;
60241;SDS011;46103;52.076;113.488;2024-03-25T14:11:53;28.88;;;12.25;;
60241;SDS011;46103;52.076;113.488;2024-03-25T14:14:55;38.60;;;19.45;;
60241;SDS011;46103;52.076;113.488;2024-03-25T14:17:58;35.10;;;17.42;;
60241;SDS011;46103;52.076;113.488;2024-03-25T14:20:59;57.15;;;26.60;;
60241;SDS011;46103;52.076;113.488;2024-03-25T14:24:04;53.83;;;24.00;;
60241;SDS011;46103;52.076;113.488;2024-03-25T14:27:06;66.15;;;30.17;;
60241;SDS011;46103;52.076;113.488;2024-03-25T14:33:15;58.03;;;27.58;;
60241;SDS011;46103;52.076;113.488;2024-03-25T14:36:17;79.10;;;39.42;;
60241;SDS011;46103;52.076;113.488;2024-03-25T14:39:19;51.88;;;29.92;;
60241;SDS011;46103;52.076;113.488;2024-03-25T14:42:24;59.08;;;31.33;;
60241;SDS011;46103;52.076;113.488;2024-03-25T14:45:26;55.38;;;31.73;;
60241;SDS011;46103;52.076;113.488;2024-03-25T14:48:30;66.88;;;33.03;;
60241;SDS011;46103;52.076;113.488;2024-03-25T14:51:32;69.25;;;36.80;;
60241;SDS011;46103;52.076;113.488;2024-03-25T14:54:35;76.47;;;41.45;;
60241;SDS011;46103;52.076;113.488;2024-03-25T14:57:39;61.08;;;34.88;;
60241;SDS011;46103;52.076;113.488;2024-03-25T15:00:42;68.32;;;36.53;;
60241;SDS011;46103;52.076;113.488;2024-03-25T15:03:44;62.55;;;34.20;;
60241;SDS011;46103;52.076;113.488;2024-03-25T15:09:52;51.95;;;28.55;;
60241;SDS011;46103;52.076;113.488;2024-03-25T15:12:54;46.17;;;23.77;;
60241;SDS011;46103;52.076;113.488;2024-03-25T15:15:56;42.35;;;21.88;;
60241;SDS011;46103;52.076;113.488;2024-03-25T15:18:59;42.70;;;23.10;;
60241;SDS011;46103;52.076;113.488;2024-03-25T15:22:01;46.58;;;24.17;;
60241;SDS011;46103;52.076;113.488;2024-03-25T15:25:04;37.72;;;21.38;;
60241;SDS011;46103;52.076;113.488;2024-03-25T15:28:09;43.60;;;22.45;;
60241;SDS011;46103;52.076;113.488;2024-03-25T15:31:11;40.70;;;21.63;;
60241;SDS011;46103;52.076;113.488;2024-03-25T15:34:13;39.85;;;21.85;;
60241;SDS011;46103;52.076;113.488;2024-03-25T15:37:16;43.38;;;18.67;;
60241;SDS011;46103;52.076;113.488;2024-03-25T15:40:18;40.28;;;19.85;;
60241;SDS011;46103;52.076;113.488;2024-03-25T15:43:21;42.03;;;20.48;;
60241;SDS011;46103;52.076;113.488;2024-03-25T15:46:24;41.22;;;20.20;;
60241;SDS011;46103;52.076;113.488;2024-03-25T15:49:27;40.75;;;20.95;;
60241;SDS011;46103;52.076;113.488;2024-03-25T15:52:29;43.35;;;23.95;;
60241;SDS011;46103;52.076;113.488;2024-03-25T15:58:34;46.83;;;19.38;;
60241;SDS011;46103;52.076;113.488;2024-03-25T16:01:36;43.97;;;20.27;;
60241;SDS011;46103;52.076;113.488;2024-03-25T16:04:38;38.17;;;21.52;;
60241;SDS011;46103;52.076;113.488;2024-03-25T16:07:42;39.65;;;20.17;;
60241;SDS011;46103;52.076;113.488;2024-03-25T16:10:44;41.97;;;20.23;;
60241;SDS011;46103;52.076;113.488;2024-03-25T16:13:46;44.50;;;20.75;;
60241;SDS011;46103;52.076;113.488;2024-03-25T16:16:50;34.13;;;17.58;;
60241;SDS011;46103;52.076;113.488;2024-03-25T16:22:55;31.90;;;16.35;;
60241;SDS011;46103;52.076;113.488;2024-03-25T16:25:58;31.23;;;16.13;;
60241;SDS011;46103;52.076;113.488;2024-03-25T16:29:00;28.98;;;12.55;;
60241;SDS011;46103;52.076;113.488;2024-03-25T16:32:03;34.00;;;15.35;;
60241;SDS011;46103;52.076;113.488;2024-03-25T16:35:06;30.15;;;14.50;;
60241;SDS011;46103;52.076;113.488;2024-03-25T16:38:09;35.03;;;16.00;;
60241;SDS011;46103;52.076;113.488;2024-03-25T16:41:11;34.08;;;16.55;;
60241;SDS011;46103;52.076;113.488;2024-03-25T16:44:14;31.30;;;15.90;;
60241;SDS011;46103;52.076;113.488;2024-03-25T16:47:16;30.52;;;16.23;;
60241;SDS011;46103;52.076;113.488;2024-03-25T16:50:19;33.70;;;15.23;;
60241;SDS011;46103;52.076;113.488;2024-03-25T16:53:23;24.42;;;13.27;;
60241;SDS011;46103;52.076;113.488;2024-03-25T16:59:35;26.05;;;12.25;;
60241;SDS011;46103;52.076;113.488;2024-03-25T17:02:37;25.80;;;11.98;;
60241;SDS011;46103;52.076;113.488;2024-03-25T17:05:40;25.10;;;14.13;;
60241;SDS011;46103;52.076;113.488;2024-03-25T17:08:43;24.33;;;12.05;;
60241;SDS011;46103;52.076;113.488;2024-03-25T17:11:45;23.70;;;11.52;;
60241;SDS011;46103;52.076;113.488;2024-03-25T17:14:49;24.70;;;12.00;;
60241;SDS011;46103;52.076;113.488;2024-03-25T17:17:51;21.52;;;12.20;;
60241;SDS011;46103;52.076;113.488;2024-03-25T17:20:58;24.92;;;12.68;;
60241;SDS011;46103;52.076;113.488;2024-03-25T17:24:01;26.80;;;13.23;;
60241;SDS011;46103;52.076;113.488;2024-03-25T17:30:06;25.15;;;12.48;;
60241;SDS011;46103;52.076;113.488;2024-03-25T17:33:11;24.52;;;11.48;;
60241;SDS011;46103;52.076;113.488;2024-03-25T17:36:14;23.98;;;12.40;;
60241;SDS011;46103;52.076;113.488;2024-03-25T17:39:17;28.45;;;12.60;;
60241;SDS011;46103;52.076;113.488;2024-03-25T17:42:19;26.50;;;11.77;;
60241;SDS011;46103;52.076;113.488;2024-03-25T17:45:22;27.67;;;12.20;;
60241;SDS011;46103;52.076;113.488;2024-03-25T17:48:24;22.98;;;11.70;;
60241;SDS011;46103;52.076;113.488;2024-03-25T17:51:27;18.15;;;10.18;;
60241;SDS011;46103;52.076;113.488;2024-03-25T17:54:30;22.63;;;10.50;;
60241;SDS011;46103;52.076;113.488;2024-03-25T17:57:33;20.90;;;11.25;;
60241;SDS011;46103;52.076;113.488;2024-03-25T18:00:35;21.45;;;11.32;;
60241;SDS011;46103;52.076;113.488;2024-03-25T18:03:38;21.35;;;11.63;;
60241;SDS011;46103;52.076;113.488;2024-03-25T18:06:42;23.08;;;11.27;;
60241;SDS011;46103;52.076;113.488;2024-03-25T18:09:44;20.80;;;11.60;;
60241;SDS011;46103;52.076;113.488;2024-03-25T18:12:46;19.30;;;11.63;;
60241;SDS011;46103;52.076;113.488;2024-03-25T18:15:49;22.60;;;10.93;;
60241;SDS011;46103;52.076;113.488;2024-03-25T18:18:54;22.40;;;10.65;;
60241;SDS011;46103;52.076;113.488;2024-03-25T18:21:56;19.67;;;9.85;;
60241;SDS011;46103;52.076;113.488;2024-03-25T18:24:59;17.40;;;10.48;;
60241;SDS011;46103;52.076;113.488;2024-03-25T18:28:01;21.48;;;11.95;;
60241;SDS011;46103;52.076;113.488;2024-03-25T18:31:05;19.65;;;12.15;;
60241;SDS011;46103;52.076;113.488;2024-03-25T18:34:11;23.63;;;11.70;;
60241;SDS011;46103;52.076;113.488;2024-03-25T18:37:14;20.77;;;12.50;;
60241;SDS011;46103;52.076;113.488;2024-03-25T18:40:17;22.13;;;11.93;;
60241;SDS011;46103;52.076;113.488;2024-03-25T18:43:20;20.88;;;10.98;;
60241;SDS011;46103;52.076;113.488;2024-03-25T18:46:23;23.08;;;10.25;;
60241;SDS011;46103;52.076;113.488;2024-03-25T18:49:26;19.77;;;9.75;;